sensor_id;sensor_type;location;lat;lon;timestamp;pressure;altitude;pressure_sealevel;temperature
20736;BMP180;10528;52.124;5.196;2023-05-13T00:01:41;102078.00;;;20.70
20736;BMP180;10528;52.124;5.196;2023-05-13T00:04:08;102070.00;;;20.70
20736;BMP180;10528;52.124;5.196;2023-05-13T00:06:35;102070.00;;;20.60
20736;BMP180;10528;52.124;5.196;2023-05-13T00:09:02;102066.00;;;20.60
20736;BMP180;10528;52.124;5.196;2023-05-13T00:11:29;102075.00;;;20.50
20736;BMP180;10528;52.124;5.196;2023-05-13T00:13:56;102075.00;;;20.50
20736;BMP180;10528;52.124;5.196;2023-05-13T00:16:23;102068.00;;;20.50
20736;BMP180;10528;52.124;5.196;2023-05-13T00:18:54;102071.00;;;20.50
20736;BMP180;10528;52.124;5.196;2023-05-13T00:21:21;102071.00;;;20.40
20736;BMP180;10528;52.124;5.196;2023-05-13T00:23:49;102065.00;;;20.40
20736;BMP180;10528;52.124;5.196;2023-05-13T00:26:16;102075.00;;;20.40
20736;BMP180;10528;52.124;5.196;2023-05-13T00:28:46;102065.00;;;20.40
20736;BMP180;10528;52.124;5.196;2023-05-13T00:31:12;102065.00;;;20.30
20736;BMP180;10528;52.124;5.196;2023-05-13T00:33:39;102069.00;;;20.30
20736;BMP180;10528;52.124;5.196;2023-05-13T00:36:06;102076.00;;;20.30
20736;BMP180;10528;52.124;5.196;2023-05-13T00:38:35;102067.00;;;20.20
20736;BMP180;10528;52.124;5.196;2023-05-13T00:41:04;102070.00;;;20.20
20736;BMP180;10528;52.124;5.196;2023-05-13T00:43:31;102062.00;;;20.20
20736;BMP180;10528;52.124;5.196;2023-05-13T00:45:58;102075.00;;;20.20
20736;BMP180;10528;52.124;5.196;2023-05-13T00:48:26;102067.00;;;20.10
20736;BMP180;10528;52.124;5.196;2023-05-13T00:50:53;102075.00;;;20.10
20736;BMP180;10528;52.124;5.196;2023-05-13T00:53:20;102071.00;;;20.10
20736;BMP180;10528;52.124;5.196;2023-05-13T00:55:47;102073.00;;;20.00
20736;BMP180;10528;52.124;5.196;2023-05-13T00:58:13;102063.00;;;20.00
20736;BMP180;10528;52.124;5.196;2023-05-13T01:06:44;102066.00;;;19.90
20736;BMP180;10528;52.124;5.196;2023-05-13T01:09:47;102059.00;;;19.90
20736;BMP180;10528;52.124;5.196;2023-05-13T01:12:28;102052.00;;;19.80
20736;BMP180;10528;52.124;5.196;2023-05-13T01:15:14;102054.00;;;19.80
20736;BMP180;10528;52.124;5.196;2023-05-13T01:17:54;102059.00;;;19.80
20736;BMP180;10528;52.124;5.196;2023-05-13T01:20:23;102049.00;;;19.70
20736;BMP180;10528;52.124;5.196;2023-05-13T01:22:51;102052.00;;;19.70
20736;BMP180;10528;52.124;5.196;2023-05-13T01:25:18;102061.00;;;19.70
20736;BMP180;10528;52.124;5.196;2023-05-13T01:27:45;102060.00;;;19.60
20736;BMP180;10528;52.124;5.196;2023-05-13T01:30:14;102061.00;;;19.60
20736;BMP180;10528;52.124;5.196;2023-05-13T01:32:42;102061.00;;;19.60
20736;BMP180;10528;52.124;5.196;2023-05-13T01:35:11;102043.00;;;19.50
20736;BMP180;10528;52.124;5.196;2023-05-13T01:37:43;102059.00;;;19.50
20736;BMP180;10528;52.124;5.196;2023-05-13T01:40:12;102056.00;;;19.40
20736;BMP180;10528;52.124;5.196;2023-05-13T01:43:00;102061.00;;;19.40
20736;BMP180;10528;52.124;5.196;2023-05-13T01:45:29;102060.00;;;19.30
20736;BMP180;10528;52.124;5.196;2023-05-13T01:47:56;102062.00;;;19.30
20736;BMP180;10528;52.124;5.196;2023-05-13T01:50:25;102055.00;;;19.30
20736;BMP180;10528;52.124;5.196;2023-05-13T01:52:52;102059.00;;;19.20
20736;BMP180;10528;52.124;5.196;2023-05-13T01:55:19;102068.00;;;19.20
20736;BMP180;10528;52.124;5.196;2023-05-13T01:57:47;102061.00;;;19.10
20736;BMP180;10528;52.124;5.196;2023-05-13T02:00:14;102059.00;;;19.10
20736;BMP180;10528;52.124;5.196;2023-05-13T02:02:41;102057.00;;;19.10
20736;BMP180;10528;52.124;5.196;2023-05-13T02:05:08;102057.00;;;19.00
20736;BMP180;10528;52.124;5.196;2023-05-13T02:07:36;102056.00;;;19.00
20736;BMP180;10528;52.124;5.196;2023-05-13T02:10:04;102063.00;;;19.00
20736;BMP180;10528;52.124;5.196;2023-05-13T02:12:31;102051.00;;;18.90
20736;BMP180;10528;52.124;5.196;2023-05-13T02:14:58;102056.00;;;18.90
20736;BMP180;10528;52.124;5.196;2023-05-13T02:17:25;102049.00;;;18.90
20736;BMP180;10528;52.124;5.196;2023-05-13T02:19:52;102053.00;;;18.80
20736;BMP180;10528;52.124;5.196;2023-05-13T02:22:19;102061.00;;;18.80
20736;BMP180;10528;52.124;5.196;2023-05-13T02:24:46;102058.00;;;18.70
20736;BMP180;10528;52.124;5.196;2023-05-13T02:27:13;102061.00;;;18.70
20736;BMP180;10528;52.124;5.196;2023-05-13T02:29:42;102051.00;;;18.70
20736;BMP180;10528;52.124;5.196;2023-05-13T02:32:09;102055.00;;;18.70
20736;BMP180;10528;52.124;5.196;2023-05-13T02:34:36;102055.00;;;18.60
20736;BMP180;10528;52.124;5.196;2023-05-13T02:37:04;102061.00;;;18.60
20736;BMP180;10528;52.124;5.196;2023-05-13T02:39:35;102061.00;;;18.60
20736;BMP180;10528;52.124;5.196;2023-05-13T02:42:01;102060.00;;;18.50
20736;BMP180;10528;52.124;5.196;2023-05-13T02:44:31;102061.00;;;18.50
20736;BMP180;10528;52.124;5.196;2023-05-13T02:46:59;102056.00;;;18.50
20736;BMP180;10528;52.124;5.196;2023-05-13T02:49:26;102057.00;;;18.50
20736;BMP180;10528;52.124;5.196;2023-05-13T02:51:53;102053.00;;;18.40
20736;BMP180;10528;52.124;5.196;2023-05-13T02:54:27;102061.00;;;18.40
20736;BMP180;10528;52.124;5.196;2023-05-13T02:56:54;102054.00;;;18.40
20736;BMP180;10528;52.124;5.196;2023-05-13T02:59:21;102050.00;;;18.40
20736;BMP180;10528;52.124;5.196;2023-05-13T03:01:48;102049.00;;;18.40
20736;BMP180;10528;52.124;5.196;2023-05-13T03:04:15;102053.00;;;18.40
20736;BMP180;10528;52.124;5.196;2023-05-13T03:06:42;102057.00;;;18.30
20736;BMP180;10528;52.124;5.196;2023-05-13T03:09:08;102049.00;;;18.30
20736;BMP180;10528;52.124;5.196;2023-05-13T03:11:35;102060.00;;;18.30
20736;BMP180;10528;52.124;5.196;2023-05-13T03:14:04;102047.00;;;18.30
20736;BMP180;10528;52.124;5.196;2023-05-13T03:16:31;102053.00;;;18.30
20736;BMP180;10528;52.124;5.196;2023-05-13T03:18:58;102059.00;;;18.30
20736;BMP180;10528;52.124;5.196;2023-05-13T03:21:25;102048.00;;;18.30
20736;BMP180;10528;52.124;5.196;2023-05-13T03:23:52;102052.00;;;18.20
20736;BMP180;10528;52.124;5.196;2023-05-13T03:26:20;102065.00;;;18.20
20736;BMP180;10528;52.124;5.196;2023-05-13T03:28:47;102062.00;;;18.20
20736;BMP180;10528;52.124;5.196;2023-05-13T03:31:15;102053.00;;;18.20
20736;BMP180;10528;52.124;5.196;2023-05-13T03:33:42;102053.00;;;18.20
20736;BMP180;10528;52.124;5.196;2023-05-13T03:36:11;102061.00;;;18.20
20736;BMP180;10528;52.124;5.196;2023-05-13T03:38:38;102065.00;;;18.10
20736;BMP180;10528;52.124;5.196;2023-05-13T03:41:04;102062.00;;;18.10
20736;BMP180;10528;52.124;5.196;2023-05-13T03:43:31;102070.00;;;18.10
20736;BMP180;10528;52.124;5.196;2023-05-13T03:46:01;102060.00;;;18.10
20736;BMP180;10528;52.124;5.196;2023-05-13T03:48:28;102064.00;;;18.10
20736;BMP180;10528;52.124;5.196;2023-05-13T03:50:58;102070.00;;;18.10
20736;BMP180;10528;52.124;5.196;2023-05-13T03:53:25;102073.00;;;18.10
20736;BMP180;10528;52.124;5.196;2023-05-13T03:55:53;102074.00;;;18.10
20736;BMP180;10528;52.124;5.196;2023-05-13T03:58:20;102062.00;;;18.10
20736;BMP180;10528;52.124;5.196;2023-05-13T04:00:48;102063.00;;;18.00
20736;BMP180;10528;52.124;5.196;2023-05-13T04:03:16;102078.00;;;18.10
20736;BMP180;10528;52.124;5.196;2023-05-13T04:05:46;102073.00;;;18.00
20736;BMP180;10528;52.124;5.196;2023-05-13T04:08:13;102076.00;;;18.00
20736;BMP180;10528;52.124;5.196;2023-05-13T04:10:40;102070.00;;;18.00
20736;BMP180;10528;52.124;5.196;2023-05-13T04:13:07;102078.00;;;18.00
20736;BMP180;10528;52.124;5.196;2023-05-13T04:15:34;102080.00;;;18.10
20736;BMP180;10528;52.124;5.196;2023-05-13T04:18:01;102069.00;;;18.10
20736;BMP180;10528;52.124;5.196;2023-05-13T04:20:28;102073.00;;;18.10
20736;BMP180;10528;52.124;5.196;2023-05-13T04:22:55;102079.00;;;18.10
20736;BMP180;10528;52.124;5.196;2023-05-13T04:25:22;102077.00;;;18.10
20736;BMP180;10528;52.124;5.196;2023-05-13T04:27:48;102082.00;;;18.10
20736;BMP180;10528;52.124;5.196;2023-05-13T04:30:23;102078.00;;;18.10
20736;BMP180;10528;52.124;5.196;2023-05-13T04:32:50;102084.00;;;18.20
20736;BMP180;10528;52.124;5.196;2023-05-13T04:35:18;102081.00;;;18.20
20736;BMP180;10528;52.124;5.196;2023-05-13T04:37:49;102085.00;;;18.20
20736;BMP180;10528;52.124;5.196;2023-05-13T04:40:17;102081.00;;;18.20
20736;BMP180;10528;52.124;5.196;2023-05-13T04:42:46;102086.00;;;18.20
20736;BMP180;10528;52.124;5.196;2023-05-13T04:45:23;102084.00;;;18.30
20736;BMP180;10528;52.124;5.196;2023-05-13T04:47:50;102091.00;;;18.30
20736;BMP180;10528;52.124;5.196;2023-05-13T04:50:17;102091.00;;;18.30
20736;BMP180;10528;52.124;5.196;2023-05-13T04:52:44;102099.00;;;18.40
20736;BMP180;10528;52.124;5.196;2023-05-13T04:55:13;102087.00;;;18.40
20736;BMP180;10528;52.124;5.196;2023-05-13T04:57:41;102101.00;;;18.40
20736;BMP180;10528;52.124;5.196;2023-05-13T05:00:09;102097.00;;;18.40
20736;BMP180;10528;52.124;5.196;2023-05-13T05:02:38;102102.00;;;18.50
20736;BMP180;10528;52.124;5.196;2023-05-13T05:05:05;102093.00;;;18.50
20736;BMP180;10528;52.124;5.196;2023-05-13T05:07:33;102107.00;;;18.60
20736;BMP180;10528;52.124;5.196;2023-05-13T05:10:00;102107.00;;;18.60
20736;BMP180;10528;52.124;5.196;2023-05-13T05:12:29;102110.00;;;18.60
20736;BMP180;10528;52.124;5.196;2023-05-13T05:14:57;102115.00;;;18.70
20736;BMP180;10528;52.124;5.196;2023-05-13T05:17:25;102118.00;;;18.70
20736;BMP180;10528;52.124;5.196;2023-05-13T05:19:54;102112.00;;;18.80
20736;BMP180;10528;52.124;5.196;2023-05-13T05:22:22;102114.00;;;18.80
20736;BMP180;10528;52.124;5.196;2023-05-13T05:24:49;102106.00;;;18.80
20736;BMP180;10528;52.124;5.196;2023-05-13T05:27:16;102115.00;;;18.90
20736;BMP180;10528;52.124;5.196;2023-05-13T05:29:44;102112.00;;;18.90
20736;BMP180;10528;52.124;5.196;2023-05-13T05:32:11;102119.00;;;19.00
20736;BMP180;10528;52.124;5.196;2023-05-13T05:34:38;102102.00;;;19.00
20736;BMP180;10528;52.124;5.196;2023-05-13T05:37:05;102113.00;;;19.10
20736;BMP180;10528;52.124;5.196;2023-05-13T05:39:34;102110.00;;;19.10
20736;BMP180;10528;52.124;5.196;2023-05-13T05:42:01;102109.00;;;19.40
20736;BMP180;10528;52.124;5.196;2023-05-13T05:44:28;102109.00;;;19.70
20736;BMP180;10528;52.124;5.196;2023-05-13T05:46:56;102118.00;;;20.10
20736;BMP180;10528;52.124;5.196;2023-05-13T05:49:23;102116.00;;;20.60
20736;BMP180;10528;52.124;5.196;2023-05-13T05:51:50;102117.00;;;21.00
20736;BMP180;10528;52.124;5.196;2023-05-13T05:54:16;102119.00;;;21.40
20736;BMP180;10528;52.124;5.196;2023-05-13T05:56:43;102115.00;;;21.80
20736;BMP180;10528;52.124;5.196;2023-05-13T05:59:10;102128.00;;;22.30
20736;BMP180;10528;52.124;5.196;2023-05-13T06:01:37;102134.00;;;22.70
20736;BMP180;10528;52.124;5.196;2023-05-13T06:04:04;102129.00;;;23.00
20736;BMP180;10528;52.124;5.196;2023-05-13T06:06:32;102121.00;;;23.30
20736;BMP180;10528;52.124;5.196;2023-05-13T06:08:59;102128.00;;;23.60
20736;BMP180;10528;52.124;5.196;2023-05-13T06:11:27;102130.00;;;24.00
20736;BMP180;10528;52.124;5.196;2023-05-13T06:13:53;102126.00;;;24.30
20736;BMP180;10528;52.124;5.196;2023-05-13T06:16:23;102129.00;;;24.60
20736;BMP180;10528;52.124;5.196;2023-05-13T06:18:49;102125.00;;;24.90
20736;BMP180;10528;52.124;5.196;2023-05-13T06:21:17;102126.00;;;25.20
20736;BMP180;10528;52.124;5.196;2023-05-13T06:23:47;102134.00;;;25.60
20736;BMP180;10528;52.124;5.196;2023-05-13T06:26:14;102132.00;;;25.80
20736;BMP180;10528;52.124;5.196;2023-05-13T06:28:41;102135.00;;;26.00
20736;BMP180;10528;52.124;5.196;2023-05-13T06:31:08;102133.00;;;26.30
20736;BMP180;10528;52.124;5.196;2023-05-13T06:33:36;102135.00;;;26.50
20736;BMP180;10528;52.124;5.196;2023-05-13T06:36:03;102134.00;;;26.60
20736;BMP180;10528;52.124;5.196;2023-05-13T06:38:31;102133.00;;;26.80
20736;BMP180;10528;52.124;5.196;2023-05-13T06:40:58;102142.00;;;27.00
20736;BMP180;10528;52.124;5.196;2023-05-13T06:43:30;102138.00;;;27.10
20736;BMP180;10528;52.124;5.196;2023-05-13T06:45:58;102144.00;;;27.30
20736;BMP180;10528;52.124;5.196;2023-05-13T06:48:27;102142.00;;;27.50
20736;BMP180;10528;52.124;5.196;2023-05-13T06:50:54;102139.00;;;27.60
20736;BMP180;10528;52.124;5.196;2023-05-13T06:53:21;102139.00;;;27.60
20736;BMP180;10528;52.124;5.196;2023-05-13T06:55:49;102143.00;;;27.50
20736;BMP180;10528;52.124;5.196;2023-05-13T06:58:15;102146.00;;;27.40
20736;BMP180;10528;52.124;5.196;2023-05-13T07:00:43;102143.00;;;27.30
20736;BMP180;10528;52.124;5.196;2023-05-13T07:03:12;102145.00;;;27.30
20736;BMP180;10528;52.124;5.196;2023-05-13T07:05:39;102150.00;;;27.40
20736;BMP180;10528;52.124;5.196;2023-05-13T07:08:06;102139.00;;;27.60
20736;BMP180;10528;52.124;5.196;2023-05-13T07:10:34;102144.00;;;27.70
20736;BMP180;10528;52.124;5.196;2023-05-13T07:13:01;102138.00;;;27.80
20736;BMP180;10528;52.124;5.196;2023-05-13T07:15:28;102146.00;;;27.90
20736;BMP180;10528;52.124;5.196;2023-05-13T07:17:55;102138.00;;;27.80
20736;BMP180;10528;52.124;5.196;2023-05-13T07:20:22;102142.00;;;27.60
20736;BMP180;10528;52.124;5.196;2023-05-13T07:22:50;102148.00;;;27.30
20736;BMP180;10528;52.124;5.196;2023-05-13T07:25:17;102145.00;;;27.00
20736;BMP180;10528;52.124;5.196;2023-05-13T07:27:45;102146.00;;;26.70
20736;BMP180;10528;52.124;5.196;2023-05-13T07:30:12;102147.00;;;26.50
20736;BMP180;10528;52.124;5.196;2023-05-13T07:32:39;102141.00;;;26.20
20736;BMP180;10528;52.124;5.196;2023-05-13T07:35:07;102143.00;;;26.10
20736;BMP180;10528;52.124;5.196;2023-05-13T07:37:35;102148.00;;;26.00
20736;BMP180;10528;52.124;5.196;2023-05-13T07:40:05;102146.00;;;26.00
20736;BMP180;10528;52.124;5.196;2023-05-13T07:42:32;102144.00;;;26.10
20736;BMP180;10528;52.124;5.196;2023-05-13T07:44:59;102156.00;;;26.20
20736;BMP180;10528;52.124;5.196;2023-05-13T07:47:26;102148.00;;;26.30
20736;BMP180;10528;52.124;5.196;2023-05-13T07:49:57;102150.00;;;26.30
20736;BMP180;10528;52.124;5.196;2023-05-13T07:52:24;102148.00;;;26.30
20736;BMP180;10528;52.124;5.196;2023-05-13T07:54:51;102148.00;;;26.50
20736;BMP180;10528;52.124;5.196;2023-05-13T07:57:18;102150.00;;;26.70
20736;BMP180;10528;52.124;5.196;2023-05-13T07:59:45;102153.00;;;26.90
20736;BMP180;10528;52.124;5.196;2023-05-13T08:02:11;102136.00;;;27.20
20736;BMP180;10528;52.124;5.196;2023-05-13T08:04:38;102140.00;;;27.50
20736;BMP180;10528;52.124;5.196;2023-05-13T08:07:05;102148.00;;;27.80
20736;BMP180;10528;52.124;5.196;2023-05-13T08:09:32;102138.00;;;27.90
20736;BMP180;10528;52.124;5.196;2023-05-13T08:11:59;102145.00;;;28.00
20736;BMP180;10528;52.124;5.196;2023-05-13T08:14:26;102141.00;;;28.00
20736;BMP180;10528;52.124;5.196;2023-05-13T08:16:53;102142.00;;;28.00
20736;BMP180;10528;52.124;5.196;2023-05-13T08:19:20;102144.00;;;28.00
20736;BMP180;10528;52.124;5.196;2023-05-13T08:21:47;102145.00;;;28.10
20736;BMP180;10528;52.124;5.196;2023-05-13T08:24:14;102145.00;;;28.10
20736;BMP180;10528;52.124;5.196;2023-05-13T08:26:41;102149.00;;;28.10
20736;BMP180;10528;52.124;5.196;2023-05-13T08:29:08;102148.00;;;28.10
20736;BMP180;10528;52.124;5.196;2023-05-13T08:31:38;102148.00;;;28.10
20736;BMP180;10528;52.124;5.196;2023-05-13T08:34:05;102151.00;;;28.10
20736;BMP180;10528;52.124;5.196;2023-05-13T08:36:32;102146.00;;;28.00
20736;BMP180;10528;52.124;5.196;2023-05-13T08:38:59;102149.00;;;28.00
20736;BMP180;10528;52.124;5.196;2023-05-13T08:41:29;102157.00;;;27.90
20736;BMP180;10528;52.124;5.196;2023-05-13T08:44:02;102152.00;;;27.80
20736;BMP180;10528;52.124;5.196;2023-05-13T08:46:32;102147.00;;;27.70
20736;BMP180;10528;52.124;5.196;2023-05-13T08:49:01;102153.00;;;27.70
20736;BMP180;10528;52.124;5.196;2023-05-13T08:51:28;102149.00;;;27.60
20736;BMP180;10528;52.124;5.196;2023-05-13T08:53:55;102155.00;;;27.60
20736;BMP180;10528;52.124;5.196;2023-05-13T08:56:22;102147.00;;;27.50
20736;BMP180;10528;52.124;5.196;2023-05-13T08:58:51;102144.00;;;27.40
20736;BMP180;10528;52.124;5.196;2023-05-13T09:01:18;102147.00;;;27.40
20736;BMP180;10528;52.124;5.196;2023-05-13T09:03:57;102147.00;;;27.30
20736;BMP180;10528;52.124;5.196;2023-05-13T09:06:25;102143.00;;;27.30
20736;BMP180;10528;52.124;5.196;2023-05-13T09:08:52;102142.00;;;27.30
20736;BMP180;10528;52.124;5.196;2023-05-13T09:11:19;102140.00;;;27.30
20736;BMP180;10528;52.124;5.196;2023-05-13T09:13:57;102140.00;;;27.20
20736;BMP180;10528;52.124;5.196;2023-05-13T09:16:27;102144.00;;;27.20
20736;BMP180;10528;52.124;5.196;2023-05-13T09:19:04;102149.00;;;27.20
20736;BMP180;10528;52.124;5.196;2023-05-13T09:21:33;102152.00;;;27.30
20736;BMP180;10528;52.124;5.196;2023-05-13T09:24:12;102139.00;;;27.30
20736;BMP180;10528;52.124;5.196;2023-05-13T09:26:44;102142.00;;;27.30
20736;BMP180;10528;52.124;5.196;2023-05-13T09:29:26;102141.00;;;27.30
20736;BMP180;10528;52.124;5.196;2023-05-13T09:31:59;102145.00;;;27.40
20736;BMP180;10528;52.124;5.196;2023-05-13T09:34:32;102146.00;;;27.40
20736;BMP180;10528;52.124;5.196;2023-05-13T09:37:03;102143.00;;;27.40
20736;BMP180;10528;52.124;5.196;2023-05-13T09:39:39;102142.00;;;27.50
20736;BMP180;10528;52.124;5.196;2023-05-13T09:42:17;102147.00;;;27.60
20736;BMP180;10528;52.124;5.196;2023-05-13T09:44:46;102149.00;;;27.60
20736;BMP180;10528;52.124;5.196;2023-05-13T09:47:14;102154.00;;;27.70
20736;BMP180;10528;52.124;5.196;2023-05-13T09:49:44;102150.00;;;27.70
20736;BMP180;10528;52.124;5.196;2023-05-13T09:52:15;102148.00;;;27.70
20736;BMP180;10528;52.124;5.196;2023-05-13T09:54:43;102153.00;;;27.80
20736;BMP180;10528;52.124;5.196;2023-05-13T09:57:12;102146.00;;;27.80
20736;BMP180;10528;52.124;5.196;2023-05-13T09:59:40;102138.00;;;27.90
20736;BMP180;10528;52.124;5.196;2023-05-13T10:02:07;102148.00;;;28.00
20736;BMP180;10528;52.124;5.196;2023-05-13T10:04:35;102151.00;;;28.00
20736;BMP180;10528;52.124;5.196;2023-05-13T10:07:03;102146.00;;;28.00
20736;BMP180;10528;52.124;5.196;2023-05-13T10:09:35;102146.00;;;28.00
20736;BMP180;10528;52.124;5.196;2023-05-13T10:12:06;102151.00;;;28.00
20736;BMP180;10528;52.124;5.196;2023-05-13T10:14:36;102144.00;;;28.00
20736;BMP180;10528;52.124;5.196;2023-05-13T10:17:05;102143.00;;;28.10
20736;BMP180;10528;52.124;5.196;2023-05-13T10:19:32;102151.00;;;28.10
20736;BMP180;10528;52.124;5.196;2023-05-13T10:22:01;102139.00;;;28.10
20736;BMP180;10528;52.124;5.196;2023-05-13T10:24:28;102144.00;;;28.20
20736;BMP180;10528;52.124;5.196;2023-05-13T10:26:57;102133.00;;;28.20
20736;BMP180;10528;52.124;5.196;2023-05-13T10:29:25;102131.00;;;28.20
20736;BMP180;10528;52.124;5.196;2023-05-13T10:31:56;102125.00;;;28.30
20736;BMP180;10528;52.124;5.196;2023-05-13T10:34:25;102135.00;;;28.30
20736;BMP180;10528;52.124;5.196;2023-05-13T10:40:47;102126.00;;;28.30
20736;BMP180;10528;52.124;5.196;2023-05-13T10:43:29;102129.00;;;28.30
20736;BMP180;10528;52.124;5.196;2023-05-13T10:46:01;102119.00;;;28.30
20736;BMP180;10528;52.124;5.196;2023-05-13T10:48:41;102125.00;;;28.40
20736;BMP180;10528;52.124;5.196;2023-05-13T10:51:13;102107.00;;;28.40
20736;BMP180;10528;52.124;5.196;2023-05-13T10:53:50;102121.00;;;28.50
20736;BMP180;10528;52.124;5.196;2023-05-13T10:56:23;102117.00;;;28.50
20736;BMP180;10528;52.124;5.196;2023-05-13T10:59:16;102111.00;;;28.50
20736;BMP180;10528;52.124;5.196;2023-05-13T11:01:43;102107.00;;;28.60
20736;BMP180;10528;52.124;5.196;2023-05-13T11:04:18;102113.00;;;28.60
20736;BMP180;10528;52.124;5.196;2023-05-13T11:06:48;102106.00;;;28.60
20736;BMP180;10528;52.124;5.196;2023-05-13T11:11:55;102116.00;;;28.70
20736;BMP180;10528;52.124;5.196;2023-05-13T11:14:25;102119.00;;;28.70
20736;BMP180;10528;52.124;5.196;2023-05-13T11:17:09;102114.00;;;28.70
20736;BMP180;10528;52.124;5.196;2023-05-13T11:19:49;102111.00;;;28.70
20736;BMP180;10528;52.124;5.196;2023-05-13T11:22:21;102110.00;;;28.70
20736;BMP180;10528;52.124;5.196;2023-05-13T11:25:06;102105.00;;;28.80
20736;BMP180;10528;52.124;5.196;2023-05-13T11:27:42;102105.00;;;28.80
20736;BMP180;10528;52.124;5.196;2023-05-13T11:30:25;102106.00;;;28.80
20736;BMP180;10528;52.124;5.196;2023-05-13T11:32:57;102102.00;;;28.80
20736;BMP180;10528;52.124;5.196;2023-05-13T11:35:30;102099.00;;;28.80
20736;BMP180;10528;52.124;5.196;2023-05-13T11:38:01;102102.00;;;28.80
20736;BMP180;10528;52.124;5.196;2023-05-13T11:40:33;102094.00;;;28.80
20736;BMP180;10528;52.124;5.196;2023-05-13T11:43:01;102095.00;;;28.80
20736;BMP180;10528;52.124;5.196;2023-05-13T11:45:31;102091.00;;;28.80
20736;BMP180;10528;52.124;5.196;2023-05-13T11:48:20;102104.00;;;28.80
20736;BMP180;10528;52.124;5.196;2023-05-13T11:50:49;102093.00;;;28.90
20736;BMP180;10528;52.124;5.196;2023-05-13T11:53:21;102080.00;;;28.90
20736;BMP180;10528;52.124;5.196;2023-05-13T11:55:48;102091.00;;;28.90
20736;BMP180;10528;52.124;5.196;2023-05-13T11:58:15;102083.00;;;28.90
20736;BMP180;10528;52.124;5.196;2023-05-13T12:00:42;102085.00;;;28.90
20736;BMP180;10528;52.124;5.196;2023-05-13T12:03:18;102083.00;;;29.00
20736;BMP180;10528;52.124;5.196;2023-05-13T12:05:45;102083.00;;;29.00
20736;BMP180;10528;52.124;5.196;2023-05-13T12:08:13;102079.00;;;29.10
20736;BMP180;10528;52.124;5.196;2023-05-13T12:10:44;102077.00;;;29.10
20736;BMP180;10528;52.124;5.196;2023-05-13T12:13:12;102073.00;;;29.20
20736;BMP180;10528;52.124;5.196;2023-05-13T12:15:40;102078.00;;;29.20
20736;BMP180;10528;52.124;5.196;2023-05-13T12:18:07;102082.00;;;29.20
20736;BMP180;10528;52.124;5.196;2023-05-13T12:20:34;102069.00;;;29.20
20736;BMP180;10528;52.124;5.196;2023-05-13T12:23:01;102069.00;;;29.20
20736;BMP180;10528;52.124;5.196;2023-05-13T12:25:44;102065.00;;;29.20
20736;BMP180;10528;52.124;5.196;2023-05-13T12:28:23;102063.00;;;29.20
20736;BMP180;10528;52.124;5.196;2023-05-13T12:31:02;102073.00;;;29.10
20736;BMP180;10528;52.124;5.196;2023-05-13T12:33:41;102066.00;;;29.20
20736;BMP180;10528;52.124;5.196;2023-05-13T12:36:21;102069.00;;;29.10
20736;BMP180;10528;52.124;5.196;2023-05-13T12:39:05;102073.00;;;29.10
20736;BMP180;10528;52.124;5.196;2023-05-13T12:41:39;102072.00;;;29.10
20736;BMP180;10528;52.124;5.196;2023-05-13T12:44:13;102072.00;;;29.10
20736;BMP180;10528;52.124;5.196;2023-05-13T12:46:54;102076.00;;;29.10
20736;BMP180;10528;52.124;5.196;2023-05-13T12:49:24;102068.00;;;29.10
20736;BMP180;10528;52.124;5.196;2023-05-13T12:51:51;102069.00;;;29.10
20736;BMP180;10528;52.124;5.196;2023-05-13T12:54:18;102057.00;;;29.20
20736;BMP180;10528;52.124;5.196;2023-05-13T12:56:45;102063.00;;;29.20
20736;BMP180;10528;52.124;5.196;2023-05-13T12:59:12;102067.00;;;29.10
20736;BMP180;10528;52.124;5.196;2023-05-13T13:01:40;102057.00;;;29.10
20736;BMP180;10528;52.124;5.196;2023-05-13T13:04:08;102063.00;;;29.10
20736;BMP180;10528;52.124;5.196;2023-05-13T13:06:35;102061.00;;;29.10
20736;BMP180;10528;52.124;5.196;2023-05-13T13:09:02;102065.00;;;29.10
20736;BMP180;10528;52.124;5.196;2023-05-13T13:11:29;102068.00;;;29.10
20736;BMP180;10528;52.124;5.196;2023-05-13T13:13:56;102051.00;;;29.10
20736;BMP180;10528;52.124;5.196;2023-05-13T13:16:23;102057.00;;;29.10
20736;BMP180;10528;52.124;5.196;2023-05-13T13:18:50;102060.00;;;29.10
20736;BMP180;10528;52.124;5.196;2023-05-13T13:21:21;102065.00;;;29.10
20736;BMP180;10528;52.124;5.196;2023-05-13T13:23:48;102063.00;;;29.10
20736;BMP180;10528;52.124;5.196;2023-05-13T13:26:15;102059.00;;;29.10
20736;BMP180;10528;52.124;5.196;2023-05-13T13:28:42;102056.00;;;29.10
20736;BMP180;10528;52.124;5.196;2023-05-13T13:31:08;102048.00;;;29.10
20736;BMP180;10528;52.124;5.196;2023-05-13T13:33:37;102062.00;;;29.20
20736;BMP180;10528;52.124;5.196;2023-05-13T13:36:04;102059.00;;;29.20
20736;BMP180;10528;52.124;5.196;2023-05-13T13:38:31;102057.00;;;29.10
20736;BMP180;10528;52.124;5.196;2023-05-13T13:40:58;102047.00;;;29.10
20736;BMP180;10528;52.124;5.196;2023-05-13T13:43:25;102054.00;;;29.10
20736;BMP180;10528;52.124;5.196;2023-05-13T13:45:52;102039.00;;;29.00
20736;BMP180;10528;52.124;5.196;2023-05-13T13:48:20;102046.00;;;29.00
20736;BMP180;10528;52.124;5.196;2023-05-13T13:50:47;102046.00;;;28.90
20736;BMP180;10528;52.124;5.196;2023-05-13T13:53:17;102032.00;;;28.90
20736;BMP180;10528;52.124;5.196;2023-05-13T13:55:44;102042.00;;;28.80
20736;BMP180;10528;52.124;5.196;2023-05-13T13:58:11;102032.00;;;28.80
20736;BMP180;10528;52.124;5.196;2023-05-13T14:00:38;102042.00;;;28.80
20736;BMP180;10528;52.124;5.196;2023-05-13T14:03:05;102039.00;;;28.80
20736;BMP180;10528;52.124;5.196;2023-05-13T14:05:32;102033.00;;;28.80
20736;BMP180;10528;52.124;5.196;2023-05-13T14:07:59;102036.00;;;28.70
20736;BMP180;10528;52.124;5.196;2023-05-13T14:10:26;102035.00;;;28.60
20736;BMP180;10528;52.124;5.196;2023-05-13T14:12:53;102033.00;;;28.50
20736;BMP180;10528;52.124;5.196;2023-05-13T14:15:20;102032.00;;;28.50
20736;BMP180;10528;52.124;5.196;2023-05-13T14:17:46;102022.00;;;28.50
20736;BMP180;10528;52.124;5.196;2023-05-13T14:20:13;102031.00;;;28.50